sensor_id;sensor_type;location;lat;lon;timestamp;temperature;humidity
19483;DHT22;9882;51.166;6.992;2022-10-04T04:01:01;11.80;99.90
19483;DHT22;9882;51.166;6.992;2022-10-04T04:03:39;11.80;99.90
19483;DHT22;9882;51.166;6.992;2022-10-04T04:06:14;11.70;99.90
19483;DHT22;9882;51.166;6.992;2022-10-04T04:08:47;11.80;99.90
19483;DHT22;9882;51.166;6.992;2022-10-04T04:11:20;11.80;99.90
19483;DHT22;9882;51.166;6.992;2022-10-04T04:13:54;11.80;99.90
19483;DHT22;9882;51.166;6.992;2022-10-04T04:16:29;11.90;99.90
19483;DHT22;9882;51.166;6.992;2022-10-04T04:19:00;11.80;99.90
19483;DHT22;9882;51.166;6.992;2022-10-04T04:21:30;11.80;99.90
19483;DHT22;9882;51.166;6.992;2022-10-04T04:24:02;11.80;99.90
19483;DHT22;9882;51.166;6.992;2022-10-04T04:26:39;11.80;99.90
19483;DHT22;9882;51.166;6.992;2022-10-04T04:29:15;11.80;99.90
19483;DHT22;9882;51.166;6.992;2022-10-04T04:31:51;11.80;99.90
19483;DHT22;9882;51.166;6.992;2022-10-04T04:34:21;11.80;99.90
19483;DHT22;9882;51.166;6.992;2022-10-04T04:36:56;11.80;99.90
19483;DHT22;9882;51.166;6.992;2022-10-04T04:39:26;11.80;99.90
19483;DHT22;9882;51.166;6.992;2022-10-04T04:42:10;11.80;99.90
19483;DHT22;9882;51.166;6.992;2022-10-04T04:44:46;11.70;99.90
19483;DHT22;9882;51.166;6.992;2022-10-04T04:47:26;11.70;99.90
19483;DHT22;9882;51.166;6.992;2022-10-04T04:49:57;11.70;99.90
19483;DHT22;9882;51.166;6.992;2022-10-04T04:52:31;11.70;99.90
19483;DHT22;9882;51.166;6.992;2022-10-04T04:55:00;11.70;99.90
19483;DHT22;9882;51.166;6.992;2022-10-04T04:57:29;11.60;99.90
19483;DHT22;9882;51.166;6.992;2022-10-04T05:00:00;11.60;99.90
19483;DHT22;9882;51.166;6.992;2022-10-04T05:02:32;11.60;99.90
19483;DHT22;9882;51.166;6.992;2022-10-04T05:05:19;11.60;99.90
19483;DHT22;9882;51.166;6.992;2022-10-04T05:07:48;11.60;99.90
19483;DHT22;9882;51.166;6.992;2022-10-04T05:10:27;11.60;99.90
19483;DHT22;9882;51.166;6.992;2022-10-04T05:12:57;11.60;99.90
19483;DHT22;9882;51.166;6.992;2022-10-04T05:15:32;11.50;99.90
19483;DHT22;9882;51.166;6.992;2022-10-04T05:18:13;11.50;99.90
19483;DHT22;9882;51.166;6.992;2022-10-04T05:20:48;11.50;99.90
19483;DHT22;9882;51.166;6.992;2022-10-04T05:23:17;11.40;99.90
19483;DHT22;9882;51.166;6.992;2022-10-04T05:25:46;11.40;99.90
19483;DHT22;9882;51.166;6.992;2022-10-04T05:28:16;11.30;99.90
19483;DHT22;9882;51.166;6.992;2022-10-04T05:30:59;11.30;99.90
19483;DHT22;9882;51.166;6.992;2022-10-04T05:33:44;11.30;99.90
19483;DHT22;9882;51.166;6.992;2022-10-04T05:36:44;11.30;99.90
19483;DHT22;9882;51.166;6.992;2022-10-04T05:39:21;11.30;99.90
19483;DHT22;9882;51.166;6.992;2022-10-04T05:41:56;11.20;99.90
19483;DHT22;9882;51.166;6.992;2022-10-04T05:44:28;11.30;99.90
19483;DHT22;9882;51.166;6.992;2022-10-04T05:46:59;11.30;99.90
19483;DHT22;9882;51.166;6.992;2022-10-04T05:49:35;11.30;99.90
19483;DHT22;9882;51.166;6.992;2022-10-04T05:52:13;11.30;99.90
19483;DHT22;9882;51.166;6.992;2022-10-04T05:54:42;11.20;99.90
19483;DHT22;9882;51.166;6.992;2022-10-04T05:57:28;11.10;99.90
19483;DHT22;9882;51.166;6.992;2022-10-04T06:00:12;11.20;99.90
19483;DHT22;9882;51.166;6.992;2022-10-04T06:06:05;11.20;99.90
19483;DHT22;9882;51.166;6.992;2022-10-04T06:08:45;11.20;99.90
19483;DHT22;9882;51.166;6.992;2022-10-04T06:11:33;11.30;99.90
19483;DHT22;9882;51.166;6.992;2022-10-04T06:17:46;11.30;99.90
19483;DHT22;9882;51.166;6.992;2022-10-04T06:20:41;11.30;99.90
19483;DHT22;9882;51.166;6.992;2022-10-04T06:23:14;11.40;99.90
19483;DHT22;9882;51.166;6.992;2022-10-04T06:25:47;11.40;99.90
19483;DHT22;9882;51.166;6.992;2022-10-04T06:28:20;11.20;99.90
19483;DHT22;9882;51.166;6.992;2022-10-04T06:31:17;11.30;99.90
19483;DHT22;9882;51.166;6.992;2022-10-04T06:33:59;11.20;99.90
19483;DHT22;9882;51.166;6.992;2022-10-04T06:36:47;11.20;99.90
19483;DHT22;9882;51.166;6.992;2022-10-04T06:39:51;11.40;99.90
19483;DHT22;9882;51.166;6.992;2022-10-04T06:42:54;11.20;99.90
19483;DHT22;9882;51.166;6.992;2022-10-04T06:45:36;11.20;99.90
19483;DHT22;9882;51.166;6.992;2022-10-04T06:48:37;11.10;99.90
19483;DHT22;9882;51.166;6.992;2022-10-04T06:51:19;11.10;99.90
19483;DHT22;9882;51.166;6.992;2022-10-04T06:54:04;11.10;99.90
19483;DHT22;9882;51.166;6.992;2022-10-04T07:06:21;11.10;99.90
19483;DHT22;9882;51.166;6.992;2022-10-04T07:12:32;10.90;99.90
19483;DHT22;9882;51.166;6.992;2022-10-04T07:33:22;11.10;99.90
19483;DHT22;9882;51.166;6.992;2022-10-04T07:37:10;11.20;99.90
19483;DHT22;9882;51.166;6.992;2022-10-04T07:40:48;11.20;99.90
19483;DHT22;9882;51.166;6.992;2022-10-04T07:44:16;11.20;99.90
19483;DHT22;9882;51.166;6.992;2022-10-04T07:47:44;11.30;99.90
19483;DHT22;9882;51.166;6.992;2022-10-04T07:50:55;11.20;99.90
19483;DHT22;9882;51.166;6.992;2022-10-04T07:57:04;11.20;99.90
19483;DHT22;9882;51.166;6.992;2022-10-04T07:57:47;11.20;99.90
19483;DHT22;9882;51.166;6.992;2022-10-04T08:08:35;11.20;99.90
19483;DHT22;9882;51.166;6.992;2022-10-04T08:16:15;11.30;99.90
19483;DHT22;9882;51.166;6.992;2022-10-04T08:29:28;11.30;99.90
19483;DHT22;9882;51.166;6.992;2022-10-04T08:33:25;11.30;99.90
19483;DHT22;9882;51.166;6.992;2022-10-04T09:02:05;11.40;99.90
19483;DHT22;9882;51.166;6.992;2022-10-04T09:14:06;11.70;99.90
19483;DHT22;9882;51.166;6.992;2022-10-04T09:17:37;11.80;99.90
19483;DHT22;9882;51.166;6.992;2022-10-04T09:20:38;11.90;99.90
19483;DHT22;9882;51.166;6.992;2022-10-04T09:24:39;12.00;99.90
19483;DHT22;9882;51.166;6.992;2022-10-04T09:28:33;12.10;99.90
19483;DHT22;9882;51.166;6.992;2022-10-04T09:49:31;12.30;99.90
19483;DHT22;9882;51.166;6.992;2022-10-04T09:53:05;12.70;99.90
19483;DHT22;9882;51.166;6.992;2022-10-04T10:32:41;13.20;99.90
19483;DHT22;9882;51.166;6.992;2022-10-04T11:00:26;13.80;99.90
19483;DHT22;9882;51.166;6.992;2022-10-04T11:29:06;14.50;99.90
19483;DHT22;9882;51.166;6.992;2022-10-04T11:36:00;14.60;99.90
19483;DHT22;9882;51.166;6.992;2022-10-04T11:39:30;13.80;99.90
19483;DHT22;9882;51.166;6.992;2022-10-04T11:42:42;14.70;99.90
19483;DHT22;9882;51.166;6.992;2022-10-04T11:49:55;15.10;99.90
19483;DHT22;9882;51.166;6.992;2022-10-04T11:57:25;15.10;99.90
19483;DHT22;9882;51.166;6.992;2022-10-04T12:01:04;14.80;99.90
19483;DHT22;9882;51.166;6.992;2022-10-04T12:33:11;16.30;99.90
19483;DHT22;9882;51.166;6.992;2022-10-04T12:36:34;16.30;99.90
19483;DHT22;9882;51.166;6.992;2022-10-04T12:39:57;16.30;99.90
19483;DHT22;9882;51.166;6.992;2022-10-04T12:42:37;15.70;99.90
19483;DHT22;9882;51.166;6.992;2022-10-04T12:45:36;15.60;99.90
19483;DHT22;9882;51.166;6.992;2022-10-04T12:48:20;16.10;99.90
19483;DHT22;9882;51.166;6.992;2022-10-04T12:50:59;16.40;99.90
19483;DHT22;9882;51.166;6.992;2022-10-04T12:53:41;16.60;99.90
19483;DHT22;9882;51.166;6.992;2022-10-04T12:56:26;16.60;99.90
19483;DHT22;9882;51.166;6.992;2022-10-04T12:59:10;16.20;99.90
19483;DHT22;9882;51.166;6.992;2022-10-04T13:01:48;16.40;99.90
19483;DHT22;9882;51.166;6.992;2022-10-04T13:04:24;16.50;99.90
19483;DHT22;9882;51.166;6.992;2022-10-04T13:07:17;16.70;99.90
19483;DHT22;9882;51.166;6.992;2022-10-04T13:09:55;16.80;99.90
19483;DHT22;9882;51.166;6.992;2022-10-04T13:15:51;16.90;99.90
19483;DHT22;9882;51.166;6.992;2022-10-04T13:18:45;17.40;99.90
19483;DHT22;9882;51.166;6.992;2022-10-04T13:21:21;17.50;99.90
19483;DHT22;9882;51.166;6.992;2022-10-04T13:24:01;17.40;99.90
19483;DHT22;9882;51.166;6.992;2022-10-04T13:26:38;17.40;99.90
19483;DHT22;9882;51.166;6.992;2022-10-04T13:29:19;17.50;99.90
19483;DHT22;9882;51.166;6.992;2022-10-04T13:31:55;17.80;99.90
19483;DHT22;9882;51.166;6.992;2022-10-04T13:34:33;17.40;99.90
19483;DHT22;9882;51.166;6.992;2022-10-04T13:37:16;17.50;99.90
19483;DHT22;9882;51.166;6.992;2022-10-04T13:40:20;17.70;99.90
19483;DHT22;9882;51.166;6.992;2022-10-04T13:46:09;17.90;99.90
19483;DHT22;9882;51.166;6.992;2022-10-04T13:48:59;18.30;99.90
19483;DHT22;9882;51.166;6.992;2022-10-04T13:51:42;18.50;99.90
19483;DHT22;9882;51.166;6.992;2022-10-04T13:54:23;19.80;99.90
19483;DHT22;9882;51.166;6.992;2022-10-04T13:57:20;20.60;99.90
19483;DHT22;9882;51.166;6.992;2022-10-04T13:59:53;21.10;99.90
19483;DHT22;9882;51.166;6.992;2022-10-04T14:02:59;21.30;99.90
19483;DHT22;9882;51.166;6.992;2022-10-04T14:05:55;21.40;99.90
19483;DHT22;9882;51.166;6.992;2022-10-04T14:08:53;22.40;99.90
19483;DHT22;9882;51.166;6.992;2022-10-04T14:11:47;21.60;99.90
19483;DHT22;9882;51.166;6.992;2022-10-04T14:14:49;21.80;99.90
19483;DHT22;9882;51.166;6.992;2022-10-04T14:17:46;21.50;99.90
19483;DHT22;9882;51.166;6.992;2022-10-04T14:20:54;22.00;99.90
19483;DHT22;9882;51.166;6.992;2022-10-04T14:23:57;22.00;99.90
19483;DHT22;9882;51.166;6.992;2022-10-04T14:26:40;22.40;99.90
19483;DHT22;9882;51.166;6.992;2022-10-04T14:29:46;22.80;99.90
19483;DHT22;9882;51.166;6.992;2022-10-04T14:32:44;22.80;99.90
19483;DHT22;9882;51.166;6.992;2022-10-04T14:35:22;23.10;99.90
19483;DHT22;9882;51.166;6.992;2022-10-04T14:38:11;23.30;99.90
19483;DHT22;9882;51.166;6.992;2022-10-04T14:41:06;23.60;99.90
19483;DHT22;9882;51.166;6.992;2022-10-04T14:44:05;23.90;99.90
19483;DHT22;9882;51.166;6.992;2022-10-04T14:46:50;23.80;99.90
19483;DHT22;9882;51.166;6.992;2022-10-04T14:49:42;23.50;99.90
19483;DHT22;9882;51.166;6.992;2022-10-04T14:52:23;23.40;99.90
19483;DHT22;9882;51.166;6.992;2022-10-04T14:55:12;23.20;99.90
19483;DHT22;9882;51.166;6.992;2022-10-04T14:58:01;23.10;99.90
19483;DHT22;9882;51.166;6.992;2022-10-04T15:00:53;23.20;99.90
19483;DHT22;9882;51.166;6.992;2022-10-04T15:03:31;23.20;99.90
19483;DHT22;9882;51.166;6.992;2022-10-04T15:06:14;22.70;99.90
19483;DHT22;9882;51.166;6.992;2022-10-04T15:09:12;22.90;99.90
19483;DHT22;9882;51.166;6.992;2022-10-04T15:11:51;22.90;99.90
19483;DHT22;9882;51.166;6.992;2022-10-04T15:14:58;22.80;99.90
19483;DHT22;9882;51.166;6.992;2022-10-04T15:17:31;22.60;99.90
19483;DHT22;9882;51.166;6.992;2022-10-04T15:20:13;22.20;99.90
19483;DHT22;9882;51.166;6.992;2022-10-04T15:22:50;22.00;99.90
19483;DHT22;9882;51.166;6.992;2022-10-04T15:25:37;22.00;99.90
19483;DHT22;9882;51.166;6.992;2022-10-04T15:28:14;22.10;99.90
19483;DHT22;9882;51.166;6.992;2022-10-04T15:31:00;22.00;99.90
19483;DHT22;9882;51.166;6.992;2022-10-04T15:33:38;21.70;99.90
19483;DHT22;9882;51.166;6.992;2022-10-04T15:36:32;21.50;99.90
19483;DHT22;9882;51.166;6.992;2022-10-04T15:39:07;21.40;99.90
19483;DHT22;9882;51.166;6.992;2022-10-04T15:41:54;21.40;99.90
19483;DHT22;9882;51.166;6.992;2022-10-04T15:44:47;21.30;99.90
19483;DHT22;9882;51.166;6.992;2022-10-04T15:47:26;20.90;99.90
19483;DHT22;9882;51.166;6.992;2022-10-04T15:50:07;20.60;99.90
19483;DHT22;9882;51.166;6.992;2022-10-04T15:53:09;20.30;99.90
19483;DHT22;9882;51.166;6.992;2022-10-04T15:55:56;20.20;99.90
19483;DHT22;9882;51.166;6.992;2022-10-04T15:58:51;20.00;99.90
19483;DHT22;9882;51.166;6.992;2022-10-04T16:01:42;20.00;99.90
19483;DHT22;9882;51.166;6.992;2022-10-04T16:04:34;19.90;99.90
19483;DHT22;9882;51.166;6.992;2022-10-04T16:07:33;19.90;99.90
19483;DHT22;9882;51.166;6.992;2022-10-04T16:10:17;19.80;99.90
19483;DHT22;9882;51.166;6.992;2022-10-04T16:19:07;19.50;99.90
19483;DHT22;9882;51.166;6.992;2022-10-04T16:21:49;19.50;99.90
19483;DHT22;9882;51.166;6.992;2022-10-04T16:24:40;19.30;99.90
19483;DHT22;9882;51.166;6.992;2022-10-04T16:30:04;19.20;99.90
19483;DHT22;9882;51.166;6.992;2022-10-04T16:33:24;19.20;99.90
19483;DHT22;9882;51.166;6.992;2022-10-04T16:36:06;19.30;99.90
19483;DHT22;9882;51.166;6.992;2022-10-04T16:38:44;19.30;99.90
19483;DHT22;9882;51.166;6.992;2022-10-04T16:41:39;19.30;99.90
19483;DHT22;9882;51.166;6.992;2022-10-04T16:44:22;19.40;99.90
19483;DHT22;9882;51.166;6.992;2022-10-04T16:46:55;19.30;99.90
19483;DHT22;9882;51.166;6.992;2022-10-04T16:49:32;19.20;99.90
19483;DHT22;9882;51.166;6.992;2022-10-04T16:52:24;19.30;99.90
19483;DHT22;9882;51.166;6.992;2022-10-04T16:55:15;19.20;99.90
19483;DHT22;9882;51.166;6.992;2022-10-04T17:00:48;19.10;99.90
19483;DHT22;9882;51.166;6.992;2022-10-04T17:03:22;19.00;99.90
19483;DHT22;9882;51.166;6.992;2022-10-04T17:06:01;18.90;99.90
19483;DHT22;9882;51.166;6.992;2022-10-04T17:08:50;18.80;99.90
19483;DHT22;9882;51.166;6.992;2022-10-04T17:11:34;18.80;99.90
19483;DHT22;9882;51.166;6.992;2022-10-04T17:14:31;18.80;99.90
19483;DHT22;9882;51.166;6.992;2022-10-04T17:17:07;18.70;99.90
19483;DHT22;9882;51.166;6.992;2022-10-04T17:19:45;18.60;99.90
19483;DHT22;9882;51.166;6.992;2022-10-04T17:22:26;18.60;99.90
19483;DHT22;9882;51.166;6.992;2022-10-04T17:25:11;18.60;99.90
19483;DHT22;9882;51.166;6.992;2022-10-04T17:27:46;18.50;99.90
19483;DHT22;9882;51.166;6.992;2022-10-04T17:30:18;18.50;99.90
19483;DHT22;9882;51.166;6.992;2022-10-04T17:33:16;18.50;99.90
19483;DHT22;9882;51.166;6.992;2022-10-04T17:36:09;18.50;99.90
19483;DHT22;9882;51.166;6.992;2022-10-04T17:38:49;18.40;99.90
19483;DHT22;9882;51.166;6.992;2022-10-04T17:41:30;18.40;99.90
19483;DHT22;9882;51.166;6.992;2022-10-04T17:44:25;18.40;99.90
19483;DHT22;9882;51.166;6.992;2022-10-04T17:46:58;18.30;99.90
19483;DHT22;9882;51.166;6.992;2022-10-04T17:49:36;18.20;99.90
19483;DHT22;9882;51.166;6.992;2022-10-04T17:52:27;18.20;99.90
19483;DHT22;9882;51.166;6.992;2022-10-04T17:55:25;18.20;99.90
19483;DHT22;9882;51.166;6.992;2022-10-04T17:58:01;18.10;99.90
19483;DHT22;9882;51.166;6.992;2022-10-04T18:00:51;18.10;99.90
19483;DHT22;9882;51.166;6.992;2022-10-04T18:03:30;18.00;99.90
19483;DHT22;9882;51.166;6.992;2022-10-04T18:06:10;18.00;99.90
19483;DHT22;9882;51.166;6.992;2022-10-04T18:08:43;17.90;99.90
19483;DHT22;9882;51.166;6.992;2022-10-04T18:11:20;17.90;99.90
19483;DHT22;9882;51.166;6.992;2022-10-04T18:13:56;17.90;99.90
19483;DHT22;9882;51.166;6.992;2022-10-04T18:16:29;17.80;99.90
19483;DHT22;9882;51.166;6.992;2022-10-04T18:19:28;17.80;99.90
19483;DHT22;9882;51.166;6.992;2022-10-04T18:22:08;17.70;99.90
19483;DHT22;9882;51.166;6.992;2022-10-04T18:24:38;17.60;99.90
19483;DHT22;9882;51.166;6.992;2022-10-04T18:27:16;17.40;99.90
19483;DHT22;9882;51.166;6.992;2022-10-04T18:30:11;17.30;99.90
19483;DHT22;9882;51.166;6.992;2022-10-04T18:32:44;17.30;99.90
19483;DHT22;9882;51.166;6.992;2022-10-04T18:35:23;17.20;99.90
19483;DHT22;9882;51.166;6.992;2022-10-04T18:37:56;17.30;99.90
19483;DHT22;9882;51.166;6.992;2022-10-04T18:40:32;17.30;99.90
19483;DHT22;9882;51.166;6.992;2022-10-04T18:43:01;17.40;99.90
19483;DHT22;9882;51.166;6.992;2022-10-04T18:45:33;17.40;99.90
19483;DHT22;9882;51.166;6.992;2022-10-04T18:48:15;17.40;99.90
19483;DHT22;9882;51.166;6.992;2022-10-04T18:50:44;17.30;99.90
19483;DHT22;9882;51.166;6.992;2022-10-04T18:53:40;17.30;99.90
19483;DHT22;9882;51.166;6.992;2022-10-04T18:56:10;17.20;99.90
19483;DHT22;9882;51.166;6.992;2022-10-04T18:58:58;17.20;99.90
19483;DHT22;9882;51.166;6.992;2022-10-04T19:02:00;17.20;99.90
19483;DHT22;9882;51.166;6.992;2022-10-04T19:04:42;17.10;99.90
19483;DHT22;9882;51.166;6.992;2022-10-04T19:07:14;17.00;99.90
19483;DHT22;9882;51.166;6.992;2022-10-04T19:09:56;17.00;99.90
19483;DHT22;9882;51.166;6.992;2022-10-04T19:12:31;17.00;99.90
19483;DHT22;9882;51.166;6.992;2022-10-04T19:15:08;16.90;99.90
19483;DHT22;9882;51.166;6.992;2022-10-04T19:17:47;16.90;99.90
19483;DHT22;9882;51.166;6.992;2022-10-04T19:20:21;16.90;99.90
19483;DHT22;9882;51.166;6.992;2022-10-04T19:22:55;16.80;99.90
19483;DHT22;9882;51.166;6.992;2022-10-04T19:25:34;16.80;99.90
19483;DHT22;9882;51.166;6.992;2022-10-04T19:28:06;16.70;99.90
19483;DHT22;9882;51.166;6.992;2022-10-04T19:30:46;16.60;99.90
19483;DHT22;9882;51.166;6.992;2022-10-04T19:33:24;16.60;99.90
19483;DHT22;9882;51.166;6.992;2022-10-04T19:36:07;16.60;99.90
19483;DHT22;9882;51.166;6.992;2022-10-04T19:38:55;16.20;99.90
19483;DHT22;9882;51.166;6.992;2022-10-04T19:41:43;16.10;99.90
19483;DHT22;9882;51.166;6.992;2022-10-04T19:44:24;16.20;99.90
19483;DHT22;9882;51.166;6.992;2022-10-04T19:47:03;16.30;99.90
19483;DHT22;9882;51.166;6.992;2022-10-04T19:49:42;16.30;99.90
19483;DHT22;9882;51.166;6.992;2022-10-04T19:52:21;16.30;99.90
19483;DHT22;9882;51.166;6.992;2022-10-04T19:54:56;16.40;99.90
19483;DHT22;9882;51.166;6.992;2022-10-04T19:57:35;16.20;99.90
19483;DHT22;9882;51.166;6.992;2022-10-04T20:00:09;16.20;99.90
19483;DHT22;9882;51.166;6.992;2022-10-04T20:05:19;15.70;99.90
19483;DHT22;9882;51.166;6.992;2022-10-04T20:08:00;15.90;99.90
19483;DHT22;9882;51.166;6.992;2022-10-04T20:10:39;15.90;99.90
19483;DHT22;9882;51.166;6.992;2022-10-04T20:13:20;15.90;99.90
19483;DHT22;9882;51.166;6.992;2022-10-04T20:15:55;15.80;99.90
19483;DHT22;9882;51.166;6.992;2022-10-04T20:18:50;15.80;99.90
19483;DHT22;9882;51.166;6.992;2022-10-04T20:21:28;15.70;99.90
19483;DHT22;9882;51.166;6.992;2022-10-04T20:24:01;15.90;99.90
19483;DHT22;9882;51.166;6.992;2022-10-04T20:26:45;16.00;99.90
19483;DHT22;9882;51.166;6.992;2022-10-04T20:32:52;16.00;99.90
19483;DHT22;9882;51.166;6.992;2022-10-04T20:59:23;15.70;99.90
19483;DHT22;9882;51.166;6.992;2022-10-04T21:02:05;15.70;99.90
19483;DHT22;9882;51.166;6.992;2022-10-04T21:04:39;15.70;99.90
19483;DHT22;9882;51.166;6.992;2022-10-04T21:12:02;15.40;99.90
19483;DHT22;9882;51.166;6.992;2022-10-04T21:14:37;15.40;99.90
19483;DHT22;9882;51.166;6.992;2022-10-04T21:17:33;15.40;99.90
19483;DHT22;9882;51.166;6.992;2022-10-04T21:24:54;15.10;99.90
19483;DHT22;9882;51.166;6.992;2022-10-04T21:27:31;15.10;99.90
19483;DHT22;9882;51.166;6.992;2022-10-04T21:30:24;15.10;99.90
19483;DHT22;9882;51.166;6.992;2022-10-04T21:40:49;14.80;99.90
19483;DHT22;9882;51.166;6.992;2022-10-04T21:43:21;14.70;99.90
19483;DHT22;9882;51.166;6.992;2022-10-04T21:50:10;14.60;99.90
19483;DHT22;9882;51.166;6.992;2022-10-04T21:52:39;14.70;99.90
19483;DHT22;9882;51.166;6.992;2022-10-04T21:55:11;14.60;99.90
19483;DHT22;9882;51.166;6.992;2022-10-04T21:57:43;14.60;99.90
19483;DHT22;9882;51.166;6.992;2022-10-04T22:08:30;14.70;99.90
19483;DHT22;9882;51.166;6.992;2022-10-04T22:11:04;14.40;99.90
19483;DHT22;9882;51.166;6.992;2022-10-04T22:20:59;14.30;99.90
19483;DHT22;9882;51.166;6.992;2022-10-04T22:23:38;14.10;99.90
19483;DHT22;9882;51.166;6.992;2022-10-04T22:26:09;14.20;99.90
19483;DHT22;9882;51.166;6.992;2022-10-04T22:33:37;14.00;99.90
19483;DHT22;9882;51.166;6.992;2022-10-04T22:36:15;13.90;99.90
19483;DHT22;9882;51.166;6.992;2022-10-04T22:38:50;14.10;99.90
19483;DHT22;9882;51.166;6.992;2022-10-04T22:46:51;14.00;99.90
19483;DHT22;9882;51.166;6.992;2022-10-04T22:49:22;14.10;99.90
19483;DHT22;9882;51.166;6.992;2022-10-04T22:51:57;14.10;99.90
19483;DHT22;9882;51.166;6.992;2022-10-04T22:54:31;14.20;99.90
